createdAt,value
2017-09-21T00:00:38.943Z,99.99
2017-09-21T00:01:47.788Z,99.99
2017-09-21T00:02:56.624Z,99.99
2017-09-21T00:04:05.464Z,99.99
2017-09-21T00:05:14.305Z,99.99
2017-09-21T00:06:23.624Z,99.99
2017-09-21T00:07:32.464Z,99.99
2017-09-21T00:08:41.304Z,99.99
2017-09-21T00:09:50.145Z,99.99
2017-09-21T00:10:58.993Z,99.99
2017-09-21T00:12:07.984Z,99.99
2017-09-21T00:13:16.822Z,99.99
2017-09-21T00:14:25.666Z,99.99
2017-09-21T00:15:34.508Z,99.99
2017-09-21T00:16:43.347Z,99.99
2017-09-21T00:17:52.237Z,99.99
2017-09-21T00:19:01.075Z,99.99
2017-09-21T00:20:09.919Z,99.99
2017-09-21T00:21:18.760Z,99.99
2017-09-21T00:22:27.935Z,99.99
2017-09-21T00:23:36.928Z,99.99
2017-09-21T00:24:45.770Z,99.99
2017-09-21T00:25:54.613Z,99.99
2017-09-21T00:27:03.790Z,99.99
2017-09-21T00:28:12.627Z,99.99
2017-09-21T00:29:21.619Z,99.99
2017-09-21T00:30:30.460Z,99.99
2017-09-21T00:31:39.302Z,99.99
2017-09-21T00:32:48.174Z,99.99
2017-09-21T00:33:56.982Z,99.99
2017-09-21T00:35:06.121Z,99.99
2017-09-21T00:36:14.960Z,99.99
2017-09-21T00:37:23.801Z,99.99
2017-09-21T00:38:32.641Z,99.99
2017-09-21T00:39:41.486Z,99.99
2017-09-21T00:40:50.522Z,99.99
2017-09-21T00:41:59.362Z,99.99
2017-09-21T00:43:08.204Z,99.99
2017-09-21T00:44:17.044Z,99.99
2017-09-21T00:45:26.227Z,99.99
2017-09-21T00:46:35.264Z,99.99
2017-09-21T00:47:44.104Z,99.99
2017-09-21T00:48:52.945Z,99.99
2017-09-21T00:50:01.795Z,99.99
2017-09-21T00:51:10.635Z,99.99
2017-09-21T00:52:19.728Z,99.99
2017-09-21T00:53:28.573Z,99.99
2017-09-21T00:54:37.412Z,99.99
2017-09-21T00:55:46.252Z,99.99
2017-09-21T00:56:55.091Z,99.99
2017-09-21T00:58:04.180Z,99.99
2017-09-21T00:59:13.024Z,99.99
2017-09-21T01:00:21.867Z,99.99
2017-09-21T01:01:30.707Z,99.99
2017-09-21T01:02:39.551Z,99.99
2017-09-21T01:03:48.593Z,99.99
2017-09-21T01:04:57.432Z,99.99
2017-09-21T01:06:06.269Z,99.99
2017-09-21T01:07:15.113Z,99.99
2017-09-21T01:08:23.952Z,99.99
2017-09-21T01:09:32.845Z,99.99
2017-09-21T01:10:41.685Z,99.99
2017-09-21T01:11:50.525Z,99.99
2017-09-21T01:12:59.366Z,99.99
2017-09-21T01:14:08.205Z,99.99
2017-09-21T01:15:17.095Z,99.99
2017-09-21T01:16:25.935Z,99.99
2017-09-21T01:17:34.783Z,99.99
2017-09-21T01:18:43.623Z,99.99
2017-09-21T01:19:52.464Z,99.99
2017-09-21T01:21:01.433Z,99.99
2017-09-21T01:22:10.273Z,99.99
2017-09-21T01:23:19.110Z,99.99
2017-09-21T01:24:27.953Z,99.99
2017-09-21T01:25:36.793Z,99.99
2017-09-21T01:26:45.784Z,99.99
2017-09-21T01:27:54.625Z,99.99
2017-09-21T01:29:03.466Z,99.99
2017-09-21T01:30:12.309Z,99.99
2017-09-21T01:31:21.483Z,99.99
2017-09-21T01:32:30.324Z,99.99
2017-09-21T01:33:39.167Z,99.99
2017-09-21T01:34:48.011Z,99.99
2017-09-21T01:35:56.849Z,99.99
2017-09-21T01:37:05.692Z,99.99
2017-09-21T01:38:14.832Z,99.99
2017-09-21T01:39:23.671Z,99.99
2017-09-21T01:40:32.512Z,99.99
2017-09-21T01:41:41.354Z,99.99
2017-09-21T01:42:50.194Z,99.99
2017-09-21T01:43:59.337Z,99.99
2017-09-21T01:45:08.184Z,99.99
2017-09-21T01:46:17.024Z,99.99
2017-09-21T01:47:25.865Z,99.99
2017-09-21T01:48:34.704Z,99.99
2017-09-21T01:49:43.745Z,99.99
2017-09-21T01:50:52.585Z,99.99
2017-09-21T01:52:01.424Z,99.99
2017-09-21T01:53:10.265Z,99.99
2017-09-21T01:54:19.105Z,99.99
2017-09-21T01:55:28.041Z,99.99
2017-09-21T01:56:36.877Z,99.99
2017-09-21T01:57:45.719Z,99.99
2017-09-21T01:58:54.564Z,99.99
2017-09-21T02:00:03.406Z,99.99
2017-09-21T02:01:12.397Z,99.99
2017-09-21T02:02:21.239Z,99.99
2017-09-21T02:03:30.081Z,99.99
2017-09-21T02:04:38.924Z,99.99
2017-09-21T02:05:47.768Z,99.99
2017-09-21T02:06:56.763Z,99.99
2017-09-21T02:08:05.604Z,99.99
2017-09-21T02:09:14.445Z,99.99
2017-09-21T02:10:23.287Z,99.99
2017-09-21T02:11:32.129Z,99.99
2017-09-21T02:12:40.973Z,99.99
2017-09-21T02:13:50.146Z,99.99
2017-09-21T02:14:58.991Z,99.99
2017-09-21T02:16:07.831Z,99.99
2017-09-21T02:17:16.675Z,99.99
2017-09-21T02:18:25.769Z,99.99
2017-09-21T02:19:34.609Z,99.99
2017-09-21T02:20:43.454Z,99.99
2017-09-21T02:21:52.297Z,99.99
2017-09-21T02:23:01.138Z,99.99
2017-09-21T02:24:09.980Z,99.99
2017-09-21T02:25:18.820Z,99.99
2017-09-21T02:26:27.664Z,99.99
2017-09-21T02:27:36.505Z,99.99
2017-09-21T02:28:45.351Z,99.99
2017-09-21T02:29:54.579Z,99.99
2017-09-21T02:31:03.421Z,99.99
2017-09-21T02:32:12.263Z,99.99
2017-09-21T02:33:21.106Z,99.99
2017-09-21T02:34:30.287Z,99.99
2017-09-21T02:35:39.231Z,99.99
2017-09-21T02:36:48.072Z,99.99
2017-09-21T02:37:56.916Z,99.99
2017-09-21T02:39:05.758Z,99.99
2017-09-21T02:40:14.607Z,99.99
2017-09-21T02:41:24.193Z,99.99
2017-09-21T02:42:33.038Z,99.99
2017-09-21T02:43:41.883Z,99.99
2017-09-21T02:44:50.732Z,99.99
2017-09-21T02:45:59.573Z,99.99
2017-09-21T02:47:08.467Z,99.99
2017-09-21T02:48:17.311Z,99.99
2017-09-21T02:49:26.491Z,99.99
2017-09-21T02:50:35.666Z,99.99
2017-09-21T02:51:44.509Z,99.99
2017-09-21T02:52:53.891Z,99.99
2017-09-21T02:54:02.734Z,99.99
2017-09-21T02:55:11.578Z,99.99
2017-09-21T02:56:20.428Z,99.99
2017-09-21T02:57:29.603Z,99.99
2017-09-21T02:58:38.596Z,99.99
2017-09-21T02:59:47.439Z,99.99
2017-09-21T03:00:56.282Z,99.99
2017-09-21T03:02:05.126Z,99.99
2017-09-21T03:03:13.995Z,99.99
2017-09-21T03:04:22.963Z,99.99
2017-09-21T03:05:31.807Z,99.99
2017-09-21T03:06:40.649Z,99.99
2017-09-21T03:07:49.493Z,99.99
2017-09-21T03:08:58.337Z,99.99
2017-09-21T03:10:07.556Z,99.99
2017-09-21T03:11:16.400Z,99.99
2017-09-21T03:12:25.240Z,99.99
2017-09-21T03:13:34.084Z,99.99
2017-09-21T03:14:43.264Z,99.99
2017-09-21T03:15:52.252Z,99.99
2017-09-21T03:17:01.095Z,99.99
2017-09-21T03:18:09.938Z,99.99
2017-09-21T03:19:18.780Z,99.99
2017-09-21T03:20:27.622Z,99.99
2017-09-21T03:21:36.514Z,99.99
2017-09-21T03:22:45.353Z,99.99
2017-09-21T03:23:54.198Z,99.99
2017-09-21T03:25:03.046Z,99.99
2017-09-21T03:26:11.889Z,99.99
2017-09-21T03:27:20.833Z,99.99
2017-09-21T03:28:29.676Z,99.99
2017-09-21T03:29:38.520Z,99.99
2017-09-21T03:30:47.370Z,99.99
2017-09-21T03:31:56.209Z,99.99
2017-09-21T03:33:05.155Z,99.99
2017-09-21T03:34:13.998Z,99.99
2017-09-21T03:35:22.841Z,99.99
2017-09-21T03:36:31.687Z,99.99
2017-09-21T03:37:40.528Z,99.99
2017-09-21T03:38:49.521Z,99.99
2017-09-21T03:39:58.365Z,99.99
2017-09-21T03:41:07.209Z,99.99
2017-09-21T03:42:16.052Z,99.99
2017-09-21T03:43:24.893Z,99.99
2017-09-21T03:44:33.887Z,99.99
2017-09-21T03:45:42.729Z,99.99
2017-09-21T03:46:51.572Z,99.99
2017-09-21T03:48:00.413Z,99.99
2017-09-21T03:49:09.258Z,99.99
2017-09-21T03:50:18.102Z,99.99
2017-09-21T03:51:26.944Z,99.99
2017-09-21T03:52:35.785Z,99.99
2017-09-21T03:53:44.627Z,99.99
2017-09-21T03:54:53.476Z,99.99
2017-09-21T03:56:02.953Z,99.99
2017-09-21T03:57:11.795Z,99.99
2017-09-21T03:58:20.968Z,99.99
2017-09-21T03:59:29.811Z,99.99
2017-09-21T04:00:38.994Z,99.99
2017-09-21T04:01:47.983Z,99.99
2017-09-21T04:02:56.830Z,99.99
2017-09-21T04:04:05.670Z,99.99
2017-09-21T04:05:14.512Z,99.99
2017-09-21T04:06:23.368Z,99.99
2017-09-21T04:07:32.246Z,99.99
2017-09-21T04:08:41.088Z,99.99
2017-09-21T04:09:49.928Z,99.99
2017-09-21T04:10:59.103Z,99.99
2017-09-21T04:12:07.944Z,99.99
2017-09-21T04:13:16.937Z,99.99
2017-09-21T04:14:25.778Z,99.99
2017-09-21T04:15:34.620Z,99.99
2017-09-21T04:16:43.459Z,99.99
2017-09-21T04:17:52.299Z,99.99
2017-09-21T04:19:01.340Z,99.99
2017-09-21T04:20:10.180Z,99.99
2017-09-21T04:21:19.019Z,99.99
2017-09-21T04:22:27.861Z,99.99
2017-09-21T04:23:37.036Z,99.99
2017-09-21T04:24:45.925Z,99.99
2017-09-21T04:25:54.769Z,99.99
2017-09-21T04:27:03.610Z,99.99
2017-09-21T04:28:12.451Z,99.99
2017-09-21T04:29:21.292Z,99.99
2017-09-21T04:30:30.236Z,99.99
2017-09-21T04:31:39.076Z,99.99
2017-09-21T04:32:48.248Z,99.99
2017-09-21T04:33:57.089Z,99.99
2017-09-21T04:35:05.933Z,99.99
2017-09-21T04:36:14.924Z,99.99
2017-09-21T04:37:23.768Z,99.99
2017-09-21T04:38:32.619Z,99.99
2017-09-21T04:39:41.461Z,99.99
2017-09-21T04:40:50.300Z,99.99
2017-09-21T04:41:59.341Z,99.99
2017-09-21T04:43:08.182Z,99.99
2017-09-21T04:44:17.024Z,99.99
2017-09-21T04:45:25.864Z,99.99
2017-09-21T04:46:34.707Z,99.99
2017-09-21T04:47:44.089Z,99.99
2017-09-21T04:48:52.926Z,99.99
2017-09-21T04:50:01.769Z,99.99
2017-09-21T04:51:10.610Z,99.99
2017-09-21T04:52:19.454Z,99.99
2017-09-21T04:53:28.347Z,99.99
2017-09-21T04:54:37.188Z,99.99
2017-09-21T04:55:46.030Z,99.99
2017-09-21T04:56:55.210Z,99.99
2017-09-21T04:58:04.048Z,99.99
2017-09-21T04:59:13.040Z,99.99
2017-09-21T05:00:21.883Z,99.99
2017-09-21T05:01:30.728Z,99.99
2017-09-21T05:02:39.571Z,99.99
2017-09-21T05:03:48.416Z,99.99
2017-09-21T05:04:57.557Z,99.99
2017-09-21T05:06:06.744Z,99.99
2017-09-21T05:07:15.586Z,99.99
2017-09-21T05:08:24.429Z,99.99
2017-09-21T05:09:33.274Z,99.99
2017-09-21T05:10:42.172Z,99.99
2017-09-21T05:11:51.345Z,99.99
2017-09-21T05:13:00.197Z,99.99
2017-09-21T05:14:09.034Z,99.99
2017-09-21T05:15:17.878Z,99.99
2017-09-21T05:16:26.874Z,99.99
2017-09-21T05:17:35.718Z,99.99
2017-09-21T05:18:44.561Z,99.99
2017-09-21T05:19:53.402Z,99.99
2017-09-21T05:21:02.245Z,99.99
2017-09-21T05:22:11.338Z,99.99
2017-09-21T05:23:20.182Z,99.99
2017-09-21T05:24:29.361Z,99.99
2017-09-21T05:25:38.205Z,99.99
2017-09-21T05:26:47.050Z,99.99
2017-09-21T05:27:55.892Z,99.99
2017-09-21T05:29:04.738Z,99.99
2017-09-21T05:30:13.581Z,99.99
2017-09-21T05:31:22.424Z,99.99
2017-09-21T05:32:31.267Z,99.99
2017-09-21T05:33:40.259Z,99.99
2017-09-21T05:34:49.100Z,99.99
2017-09-21T05:35:57.942Z,99.99
2017-09-21T05:37:06.784Z,99.99
2017-09-21T05:38:15.628Z,99.99
2017-09-21T05:39:24.521Z,99.99
2017-09-21T05:40:33.363Z,99.99
2017-09-21T05:41:42.202Z,99.99
2017-09-21T05:42:51.395Z,99.99
2017-09-21T05:44:00.239Z,99.99
2017-09-21T05:45:09.233Z,99.99
2017-09-21T05:46:18.078Z,99.99
2017-09-21T05:47:27.250Z,99.99
2017-09-21T05:48:36.093Z,99.99
2017-09-21T05:49:44.941Z,99.99
2017-09-21T05:50:53.980Z,99.99
2017-09-21T05:52:02.824Z,99.99
2017-09-21T05:53:11.671Z,99.99
2017-09-21T05:54:20.513Z,99.99
2017-09-21T05:55:29.358Z,99.99
2017-09-21T05:56:38.253Z,99.99
2017-09-21T05:57:47.098Z,99.99
2017-09-21T05:58:55.942Z,99.99
2017-09-21T06:00:05.125Z,99.99
2017-09-21T06:01:13.969Z,99.99
2017-09-21T06:02:22.863Z,99.99
2017-09-21T06:03:31.705Z,99.99
2017-09-21T06:04:40.549Z,99.99
2017-09-21T06:05:49.393Z,99.99
2017-09-21T06:06:58.237Z,99.99
2017-09-21T06:08:07.130Z,99.99
2017-09-21T06:09:15.974Z,99.99
2017-09-21T06:10:25.155Z,99.99
2017-09-21T06:11:33.998Z,99.99
2017-09-21T06:12:42.844Z,99.99
2017-09-21T06:13:51.845Z,99.99
2017-09-21T06:15:01.020Z,99.99
2017-09-21T06:16:09.870Z,99.99
2017-09-21T06:17:18.707Z,99.99
2017-09-21T06:18:27.550Z,99.99
2017-09-21T06:19:36.444Z,99.99
2017-09-21T06:20:45.286Z,99.99
2017-09-21T06:21:54.130Z,99.99
2017-09-21T06:23:02.972Z,99.99
2017-09-21T06:24:11.815Z,99.99
2017-09-21T06:25:20.758Z,99.99
2017-09-21T06:26:29.600Z,99.99
2017-09-21T06:27:38.445Z,99.99
2017-09-21T06:28:47.290Z,99.99
2017-09-21T06:29:56.135Z,99.99
2017-09-21T06:31:05.129Z,99.99
2017-09-21T06:32:14.309Z,99.99
2017-09-21T06:33:23.154Z,99.99
2017-09-21T06:34:31.999Z,99.99
2017-09-21T06:35:41.178Z,99.99
2017-09-21T06:36:50.173Z,99.99
2017-09-21T06:37:59.015Z,99.99
2017-09-21T06:39:08.196Z,99.99
2017-09-21T06:40:17.040Z,99.99
2017-09-21T06:41:25.884Z,99.99
2017-09-21T06:42:34.887Z,99.99
2017-09-21T06:43:43.731Z,99.99
2017-09-21T06:44:52.573Z,99.99
2017-09-21T06:46:01.420Z,99.99
2017-09-21T06:47:10.276Z,99.99
2017-09-21T06:48:19.269Z,99.99
2017-09-21T06:49:28.478Z,99.99
2017-09-21T06:50:37.327Z,99.99
2017-09-21T06:51:46.172Z,99.99
2017-09-21T06:52:55.346Z,99.99
2017-09-21T06:54:04.291Z,99.99
2017-09-21T06:55:13.136Z,99.99
2017-09-21T06:56:21.984Z,99.99
2017-09-21T06:57:30.832Z,99.99
2017-09-21T06:58:39.685Z,99.99
2017-09-21T06:59:48.581Z,99.99
2017-09-21T07:00:57.424Z,99.99
2017-09-21T07:02:06.266Z,99.99
2017-09-21T07:03:15.111Z,99.99
2017-09-21T07:04:24.288Z,99.99
2017-09-21T07:05:33.434Z,99.99
2017-09-21T07:06:42.276Z,99.99
2017-09-21T07:07:51.120Z,99.99
2017-09-21T07:09:00.301Z,99.99
2017-09-21T07:10:09.148Z,99.99
2017-09-21T07:11:18.293Z,99.99
2017-09-21T07:12:27.138Z,99.99
2017-09-21T07:13:35.984Z,99.99
2017-09-21T07:14:44.828Z,99.99
2017-09-21T07:15:53.672Z,99.99
2017-09-21T07:17:02.671Z,99.99
2017-09-21T07:18:11.516Z,99.99
2017-09-21T07:19:20.361Z,99.99
2017-09-21T07:20:29.203Z,99.99
2017-09-21T07:21:38.047Z,99.99
2017-09-21T07:22:46.994Z,99.99
2017-09-21T07:23:55.883Z,99.99
2017-09-21T07:25:05.037Z,99.99
2017-09-21T07:26:14.217Z,99.99
2017-09-21T07:27:23.061Z,99.99
2017-09-21T07:28:32.054Z,99.99
2017-09-21T07:29:40.899Z,99.99
2017-09-21T07:30:49.745Z,99.99
2017-09-21T07:31:58.592Z,99.99
2017-09-21T07:33:07.435Z,99.99
2017-09-21T07:34:16.327Z,99.99
2017-09-21T07:35:25.517Z,99.99
2017-09-21T07:36:34.375Z,99.99
2017-09-21T07:37:43.247Z,99.99
2017-09-21T07:38:52.095Z,99.99
2017-09-21T07:40:01.000Z,99.99
2017-09-21T07:41:09.850Z,99.99
2017-09-21T07:42:18.706Z,99.99
2017-09-21T07:43:27.551Z,99.99
2017-09-21T07:44:36.396Z,99.99
2017-09-21T07:45:45.543Z,99.99
2017-09-21T07:46:54.389Z,99.99
2017-09-21T07:48:03.237Z,99.99
2017-09-21T07:49:12.078Z,99.99
2017-09-21T07:50:20.923Z,99.99
2017-09-21T07:51:30.261Z,99.99
2017-09-21T07:52:39.446Z,99.99
2017-09-21T07:53:48.298Z,99.99
2017-09-21T07:54:57.141Z,99.99
2017-09-21T07:56:05.985Z,99.99
2017-09-21T07:57:14.981Z,99.99
2017-09-21T07:58:24.156Z,99.99
2017-09-21T07:59:33.001Z,99.99
2017-09-21T08:00:41.847Z,99.99
2017-09-21T08:01:50.698Z,99.99
2017-09-21T08:02:59.744Z,99.99
2017-09-21T08:04:08.590Z,99.99
2017-09-21T08:05:17.436Z,99.99
2017-09-21T08:06:26.281Z,99.99
2017-09-21T08:07:35.124Z,99.99
2017-09-21T08:08:44.368Z,99.99
2017-09-21T08:09:53.547Z,99.99
2017-09-21T08:11:02.391Z,99.99
2017-09-21T08:12:11.572Z,99.99
2017-09-21T08:13:20.753Z,99.99
2017-09-21T08:14:29.949Z,99.99
2017-09-21T08:15:38.794Z,99.99
2017-09-21T08:16:47.639Z,99.99
2017-09-21T08:17:56.485Z,99.99
2017-09-21T08:19:05.329Z,99.99
2017-09-21T08:20:14.326Z,99.99
2017-09-21T08:21:23.173Z,99.99
2017-09-21T08:22:32.017Z,99.99
2017-09-21T08:23:40.875Z,99.99
2017-09-21T08:24:49.715Z,99.99
2017-09-21T08:25:58.707Z,99.99
2017-09-21T08:27:07.553Z,99.99
2017-09-21T08:28:16.400Z,99.99
2017-09-21T08:29:25.245Z,99.99
2017-09-21T08:30:34.426Z,99.99
2017-09-21T08:31:43.855Z,99.99
2017-09-21T08:32:52.698Z,99.99
2017-09-21T08:34:01.544Z,99.99
2017-09-21T08:35:10.392Z,99.99
2017-09-21T08:36:19.239Z,99.99
2017-09-21T08:37:28.232Z,99.99
2017-09-21T08:38:37.077Z,99.99
2017-09-21T08:39:45.922Z,99.99
2017-09-21T08:40:55.100Z,99.99
2017-09-21T08:42:03.941Z,99.99
2017-09-21T08:43:13.037Z,99.99
2017-09-21T08:44:21.882Z,99.99
2017-09-21T08:45:30.726Z,99.99
2017-09-21T08:46:39.572Z,99.99
2017-09-21T08:47:48.416Z,99.99
2017-09-21T08:48:57.361Z,99.99
2017-09-21T08:50:06.208Z,99.99
2017-09-21T08:51:15.385Z,99.99
2017-09-21T08:52:24.231Z,99.99
2017-09-21T08:53:33.074Z,99.99
2017-09-21T08:54:42.071Z,99.99
2017-09-21T08:55:50.919Z,99.99
2017-09-21T08:56:59.764Z,99.99
2017-09-21T08:58:08.608Z,99.99
2017-09-21T08:59:17.452Z,99.99
2017-09-21T09:00:26.447Z,99.99
2017-09-21T09:01:35.292Z,99.99
2017-09-21T09:02:44.471Z,99.99
2017-09-21T09:03:53.316Z,99.99
2017-09-21T09:05:02.161Z,99.99
2017-09-21T09:06:11.107Z,99.99
2017-09-21T09:07:19.952Z,99.99
2017-09-21T09:08:28.797Z,99.99
2017-09-21T09:09:37.644Z,99.99
2017-09-21T09:10:46.489Z,99.99
2017-09-21T09:11:55.436Z,99.99
2017-09-21T09:13:04.282Z,99.99
2017-09-21T09:14:13.128Z,99.99
2017-09-21T09:15:21.974Z,99.99
2017-09-21T09:16:30.818Z,99.99
2017-09-21T09:17:39.714Z,99.99
2017-09-21T09:18:48.561Z,99.99
2017-09-21T09:19:57.408Z,99.99
2017-09-21T09:21:06.252Z,99.99
2017-09-21T09:22:15.100Z,99.99
2017-09-21T09:23:24.096Z,99.99
2017-09-21T09:24:32.942Z,99.99
2017-09-21T09:25:42.122Z,99.99
2017-09-21T09:26:50.965Z,99.99
2017-09-21T09:27:59.811Z,99.99
2017-09-21T09:29:08.707Z,99.99
2017-09-21T09:30:17.553Z,99.99
2017-09-21T09:31:26.403Z,99.99
2017-09-21T09:32:35.248Z,99.99
2017-09-21T09:33:44.092Z,99.99
2017-09-21T09:34:52.991Z,99.99
2017-09-21T09:36:01.835Z,99.99
2017-09-21T09:37:10.679Z,99.99
2017-09-21T09:38:19.524Z,99.99
2017-09-21T09:39:28.369Z,99.99
2017-09-21T09:40:37.517Z,99.99
2017-09-21T09:41:46.366Z,99.99
2017-09-21T09:42:55.562Z,99.99
2017-09-21T09:44:04.409Z,99.99
2017-09-21T09:45:13.254Z,99.99
2017-09-21T09:46:22.151Z,99.99
2017-09-21T09:47:31.338Z,99.99
2017-09-21T09:48:40.184Z,99.99
2017-09-21T09:49:49.029Z,99.99
2017-09-21T09:50:57.877Z,99.99
2017-09-21T09:52:06.974Z,99.99
2017-09-21T09:53:15.822Z,99.99
2017-09-21T09:54:25.008Z,99.99
2017-09-21T09:55:33.853Z,99.99
2017-09-21T09:56:42.704Z,99.99
2017-09-21T09:57:51.933Z,99.99
2017-09-21T09:59:00.778Z,99.99
2017-09-21T10:00:09.624Z,99.99
2017-09-21T10:01:18.473Z,99.99
2017-09-21T10:02:27.318Z,99.99
2017-09-21T10:03:36.312Z,99.99
2017-09-21T10:04:45.209Z,99.99
2017-09-21T10:05:54.056Z,99.99
2017-09-21T10:07:02.904Z,99.99
2017-09-21T10:08:11.755Z,99.99
2017-09-21T10:09:21.048Z,99.99
2017-09-21T10:10:30.231Z,99.99
2017-09-21T10:11:39.165Z,99.99
2017-09-21T10:12:48.314Z,99.99
2017-09-21T10:13:57.254Z,99.99
2017-09-21T10:15:06.526Z,99.99
2017-09-21T10:16:15.451Z,99.99
2017-09-21T10:17:24.334Z,99.99
2017-09-21T10:18:33.196Z,99.99
2017-09-21T10:19:42.094Z,99.99
2017-09-21T10:20:51.044Z,99.99
2017-09-21T10:21:59.932Z,99.99
2017-09-21T10:23:08.847Z,99.99
2017-09-21T10:24:17.745Z,99.99
2017-09-21T10:25:26.675Z,99.99
2017-09-21T10:26:35.740Z,99.99
2017-09-21T10:27:44.710Z,99.99
2017-09-21T10:28:53.916Z,99.99
2017-09-21T10:30:02.768Z,99.99
2017-09-21T10:31:11.702Z,99.99
2017-09-21T10:32:20.597Z,99.99
2017-09-21T10:33:29.520Z,99.99
2017-09-21T10:34:38.424Z,99.99
2017-09-21T10:35:47.340Z,99.99
2017-09-21T10:36:56.231Z,99.99
2017-09-21T10:38:05.303Z,99.99
2017-09-21T10:39:14.195Z,99.99
2017-09-21T10:40:23.441Z,99.99
2017-09-21T10:41:32.297Z,99.99
2017-09-21T10:42:41.551Z,99.99
2017-09-21T10:43:50.519Z,99.99
2017-09-21T10:44:59.569Z,99.99
2017-09-21T10:46:08.509Z,99.99
2017-09-21T10:47:17.408Z,99.99
2017-09-21T10:48:26.303Z,99.99
2017-09-21T10:51:13.869Z,99.99
2017-09-21T10:52:22.745Z,99.99
2017-09-21T10:53:31.663Z,99.99
2017-09-21T10:54:40.991Z,99.99
2017-09-21T10:55:49.928Z,99.99
2017-09-21T10:56:58.795Z,99.99
2017-09-21T10:58:07.678Z,99.99
2017-09-21T10:59:16.548Z,99.99
2017-09-21T11:00:25.588Z,99.99
2017-09-21T11:01:34.533Z,99.99
2017-09-21T11:02:43.422Z,99.99
2017-09-21T11:03:52.333Z,99.99
2017-09-21T11:05:01.212Z,99.99
2017-09-21T11:06:10.383Z,99.99
2017-09-21T11:07:19.283Z,99.99
2017-09-21T11:08:28.224Z,99.99
2017-09-21T11:09:37.142Z,99.99
2017-09-21T11:10:46.113Z,99.99
2017-09-21T11:11:55.140Z,99.99
2017-09-21T11:13:04.026Z,99.99
2017-09-21T11:14:12.940Z,99.99
2017-09-21T11:15:21.840Z,99.99
2017-09-21T11:16:30.799Z,99.99
2017-09-21T11:17:39.820Z,99.99
2017-09-21T11:18:48.724Z,99.99
2017-09-21T11:19:57.607Z,99.99
2017-09-21T11:21:06.550Z,99.99
2017-09-21T11:22:15.419Z,99.99
2017-09-21T11:23:24.740Z,99.99
2017-09-21T11:24:33.648Z,99.99
2017-09-21T11:25:42.564Z,99.99
2017-09-21T11:26:51.480Z,99.99
2017-09-21T11:28:00.764Z,99.99
2017-09-21T11:29:09.750Z,99.99
2017-09-21T11:30:18.669Z,99.99
2017-09-21T11:31:27.566Z,99.99
2017-09-21T11:32:36.476Z,99.99
2017-09-21T11:33:45.402Z,99.99
2017-09-21T11:34:54.493Z,99.99
2017-09-21T11:36:03.376Z,99.99
2017-09-21T11:37:12.622Z,99.99
2017-09-21T11:38:21.495Z,99.99
2017-09-21T11:39:30.440Z,99.99
2017-09-21T11:40:39.573Z,99.99
2017-09-21T11:41:48.516Z,99.99
2017-09-21T11:42:57.610Z,99.99
2017-09-21T11:44:06.548Z,99.99
2017-09-21T11:45:15.533Z,99.99
2017-09-21T11:46:24.712Z,99.99
2017-09-21T11:47:33.627Z,99.99
2017-09-21T11:48:42.810Z,99.99
2017-09-21T11:49:51.669Z,99.99
2017-09-21T11:51:00.532Z,99.99
2017-09-21T11:52:09.914Z,99.99
2017-09-21T11:53:18.762Z,99.99
2017-09-21T11:54:27.611Z,99.99
2017-09-21T11:55:36.463Z,99.99
2017-09-21T11:56:45.317Z,99.99
2017-09-21T11:57:54.318Z,99.99
2017-09-21T11:59:03.169Z,99.99
2017-09-21T12:00:12.023Z,99.99
2017-09-21T12:01:20.873Z,99.99
2017-09-21T12:02:29.723Z,99.99
2017-09-21T12:03:38.672Z,99.99
2017-09-21T12:04:47.521Z,99.99
2017-09-21T12:05:56.372Z,99.99
2017-09-21T12:07:05.228Z,99.99
2017-09-21T12:08:14.082Z,99.99
2017-09-21T12:09:23.193Z,99.99
2017-09-21T12:10:32.046Z,99.99
2017-09-21T12:11:40.898Z,99.99
2017-09-21T12:12:49.750Z,99.99
2017-09-21T12:13:58.604Z,99.99
2017-09-21T12:15:07.506Z,99.99
2017-09-21T12:16:16.362Z,99.54
2017-09-21T12:17:25.215Z,99.64
2017-09-21T12:18:34.068Z,99.73
2017-09-21T12:19:42.919Z,99.93
2017-09-21T12:20:52.073Z,99.73
2017-09-21T12:22:00.923Z,99.44
2017-09-21T12:23:09.775Z,98.49
2017-09-21T12:24:18.641Z,98.77
2017-09-21T12:25:27.493Z,99.59
2017-09-21T12:26:36.494Z,99.99
2017-09-21T12:27:45.676Z,99.99
2017-09-21T12:28:54.527Z,99.99
2017-09-21T12:30:03.376Z,99.99
2017-09-21T12:31:12.225Z,99.93
2017-09-21T12:32:21.228Z,99.99
2017-09-21T12:33:30.082Z,99.44
2017-09-21T12:34:38.934Z,99.59
2017-09-21T12:35:47.785Z,99.99
2017-09-21T12:36:56.640Z,96.61
2017-09-21T12:38:05.492Z,98.05
2017-09-21T12:39:14.344Z,98
2017-09-21T12:40:23.197Z,97.57
2017-09-21T12:41:32.080Z,97.24
2017-09-21T12:42:40.932Z,96.8
2017-09-21T12:43:49.786Z,96.27
2017-09-21T12:44:58.639Z,97.52
2017-09-21T12:46:07.493Z,98.49
2017-09-21T12:47:16.349Z,99.99
2017-09-21T12:48:25.538Z,99.64
2017-09-21T12:49:34.389Z,99.99
2017-09-21T12:50:43.241Z,99.99
2017-09-21T12:51:52.091Z,98.29
2017-09-21T12:53:00.942Z,98.1
2017-09-21T12:54:09.796Z,99.83
2017-09-21T12:55:18.650Z,99.11
2017-09-21T12:56:27.510Z,99.99
2017-09-21T12:57:36.361Z,99.99
2017-09-21T12:58:45.213Z,99.68
2017-09-21T12:59:54.061Z,99.73
2017-09-21T13:01:02.911Z,99.99
2017-09-21T13:02:11.761Z,99.99
2017-09-21T13:03:20.915Z,99.99
2017-09-21T13:04:29.766Z,99.99
2017-09-21T13:05:39.293Z,99.4
2017-09-21T13:06:48.144Z,99.99
2017-09-21T13:07:56.993Z,99.99
2017-09-21T13:09:05.846Z,99.4
2017-09-21T13:10:14.698Z,99.99
2017-09-21T13:11:23.881Z,98.91
2017-09-21T13:12:32.730Z,99.99
2017-09-21T13:13:41.591Z,99.99
2017-09-21T13:14:50.506Z,99.78
2017-09-21T13:15:59.697Z,99.99
2017-09-21T13:17:08.549Z,99.99
2017-09-21T13:18:17.398Z,99.99
2017-09-21T13:19:26.251Z,99.99
2017-09-21T13:20:35.200Z,99.99
2017-09-21T13:21:44.051Z,99.99
2017-09-21T13:22:52.901Z,99.99
2017-09-21T13:24:01.750Z,99.99
2017-09-21T13:25:10.605Z,99.99
2017-09-21T13:26:19.826Z,99.99
2017-09-21T13:27:28.786Z,99.99
2017-09-21T13:28:37.746Z,99.99
2017-09-21T13:29:46.676Z,99.99
2017-09-21T13:30:55.688Z,99.99
2017-09-21T13:32:04.745Z,99.99
2017-09-21T13:33:13.644Z,99.99
2017-09-21T13:34:22.612Z,99.99
2017-09-21T13:35:31.512Z,99.99
2017-09-21T13:36:40.395Z,99.64
2017-09-21T13:37:49.908Z,99.06
2017-09-21T13:38:58.853Z,98.58
2017-09-21T13:40:07.754Z,99.06
2017-09-21T13:41:16.688Z,99.99
2017-09-21T13:42:25.635Z,99.99
2017-09-21T13:43:34.735Z,98.58
2017-09-21T13:44:43.932Z,99.99
2017-09-21T13:45:52.899Z,99.44
2017-09-21T13:47:01.831Z,99.99
2017-09-21T13:48:10.758Z,99.99
2017-09-21T13:49:19.663Z,99.99
2017-09-21T13:50:28.608Z,96.27
2017-09-21T13:51:37.556Z,97.62
2017-09-21T13:52:46.885Z,95.6
2017-09-21T13:53:55.971Z,97.14
2017-09-21T13:55:06.327Z,98.58
2017-09-21T13:56:15.442Z,98.77
2017-09-21T13:57:24.438Z,99.99
2017-09-21T13:58:33.323Z,99.99
2017-09-21T13:59:42.224Z,99.99
2017-09-21T14:02:29.770Z,99.99
2017-09-21T14:03:38.744Z,99.99
2017-09-21T14:04:47.682Z,99.83
2017-09-21T14:05:57.385Z,99.35
2017-09-21T14:07:06.306Z,99.64
2017-09-21T14:08:15.221Z,99.83
2017-09-21T14:09:24.187Z,99.93
2017-09-21T14:10:33.427Z,99.83
2017-09-21T14:11:42.386Z,99.99
2017-09-21T14:12:51.343Z,99.99
2017-09-21T14:14:00.322Z,98.87
2017-09-21T14:15:09.426Z,99.99
2017-09-21T14:16:18.520Z,99.99
2017-09-21T14:17:27.680Z,99.99
2017-09-21T14:18:36.667Z,99.73
2017-09-21T14:19:45.601Z,99.99
2017-09-21T14:20:54.524Z,98.34
2017-09-21T14:22:03.468Z,98.63
2017-09-21T14:23:12.742Z,98.54
2017-09-21T14:24:21.647Z,96.32
2017-09-21T14:25:30.768Z,97.38
2017-09-21T14:26:39.622Z,97.38
2017-09-21T14:27:48.479Z,98.14
2017-09-21T14:28:57.523Z,97.28
2017-09-21T14:30:06.461Z,96.89
2017-09-21T14:31:15.386Z,97.47
2017-09-21T14:32:24.250Z,97.86
2017-09-21T14:33:33.272Z,99.11
2017-09-21T14:34:42.551Z,96.8
2017-09-21T14:35:51.543Z,97.57
2017-09-21T14:37:01.186Z,96.8
2017-09-21T14:38:10.990Z,99.99
2017-09-21T14:39:19.916Z,96.32
2017-09-21T14:40:28.889Z,95.45
2017-09-21T14:41:37.822Z,99.4
2017-09-21T14:42:46.699Z,98.34
2017-09-21T14:43:55.595Z,96.8
2017-09-21T14:45:04.507Z,95.36
2017-09-21T14:46:13.561Z,96.51
2017-09-21T14:47:22.431Z,98.63
2017-09-21T14:48:31.304Z,95.45
2017-09-21T14:49:40.563Z,97.86
2017-09-21T14:50:49.489Z,97.09
2017-09-21T14:51:59.509Z,97.67